createdAt,value
2023-02-23T00:04:57.542Z,78.55
2023-02-23T00:07:28.038Z,77.63
2023-02-23T00:09:59.240Z,76.51
2023-02-23T00:12:29.752Z,76.51
2023-02-23T00:15:13.560Z,76.73
2023-02-23T00:17:50.519Z,76.89
2023-02-23T00:20:23.754Z,76.89
2023-02-23T00:22:59.663Z,78.12
2023-02-23T00:25:30.675Z,78.12
2023-02-23T00:28:01.233Z,77.77
2023-02-23T00:30:41.233Z,77.45
2023-02-23T00:33:18.834Z,77.23
2023-02-23T00:35:49.167Z,77.23
2023-02-23T00:38:19.911Z,76.73
2023-02-23T00:40:50.711Z,77.57
2023-02-23T00:43:22.773Z,76.99
2023-02-23T00:45:57.332Z,76.97
2023-02-23T00:48:27.559Z,77.25
2023-02-23T00:51:02.876Z,77.25
2023-02-23T00:53:33.520Z,77.04
2023-02-23T00:56:10.617Z,76.94
2023-02-23T00:58:41.227Z,77.35
2023-02-23T01:01:14.611Z,76.89
2023-02-23T01:03:45.779Z,76.89
2023-02-23T01:06:17.964Z,77.28
2023-02-23T01:08:50.493Z,77.25
2023-02-23T01:11:23.603Z,77.12
2023-02-23T01:13:56.881Z,77.25
2023-02-23T01:16:30.770Z,77.00
2023-02-23T01:19:05.486Z,77.35
2023-02-23T01:21:39.424Z,77.27
2023-02-23T01:24:11.547Z,77.74
2023-02-23T01:26:45.679Z,77.56
2023-02-23T01:29:18.253Z,78.51
2023-02-23T01:31:50.729Z,78.46
2023-02-23T01:34:22.215Z,77.70
2023-02-23T01:36:55.651Z,77.23
2023-02-23T01:39:26.007Z,77.23
2023-02-23T01:42:01.586Z,77.92
2023-02-23T01:44:35.688Z,77.18
2023-02-23T01:47:08.580Z,77.57
2023-02-23T01:49:39.593Z,77.64
2023-02-23T01:52:31.026Z,77.93
2023-02-23T01:55:01.460Z,77.66
2023-02-23T01:57:35.358Z,77.45
2023-02-23T02:00:07.645Z,77.28
2023-02-23T02:02:38.084Z,77.80
2023-02-23T02:05:08.874Z,77.80
2023-02-23T02:07:40.908Z,77.28
2023-02-23T02:10:13.132Z,77.38
2023-02-23T02:12:46.775Z,77.70
2023-02-23T02:15:17.390Z,77.03
2023-02-23T02:17:53.552Z,77.03
2023-02-23T02:20:38.640Z,76.87
2023-02-23T02:23:46.763Z,77.85
2023-02-23T02:26:20.857Z,77.70
2023-02-23T02:29:20.477Z,78.06
2023-02-23T02:31:53.920Z,77.49
2023-02-23T02:34:56.043Z,77.90
2023-02-23T02:37:39.433Z,78.55
2023-02-23T02:40:30.569Z,77.82
2023-02-23T02:43:18.821Z,77.91
2023-02-23T02:45:57.772Z,77.54
2023-02-23T02:48:55.520Z,77.68
2023-02-23T02:51:28.820Z,77.09
2023-02-23T02:54:07.658Z,77.50
2023-02-23T02:56:46.101Z,77.93
2023-02-23T02:59:33.822Z,78.07
2023-02-23T03:02:06.137Z,78.01
2023-02-23T03:04:37.344Z,77.51
2023-02-23T03:07:28.501Z,77.97
2023-02-23T03:10:05.052Z,77.97
2023-02-23T03:12:41.831Z,78.42
2023-02-23T03:15:18.316Z,78.15
2023-02-23T03:17:52.373Z,78.15
2023-02-23T03:20:34.172Z,78.71
2023-02-23T03:23:27.936Z,78.48
2023-02-23T03:26:06.665Z,78.68
2023-02-23T03:28:46.565Z,78.64
2023-02-23T03:31:43.392Z,78.97
2023-02-23T03:34:19.303Z,79.19
2023-02-23T03:36:55.749Z,79.38
2023-02-23T03:39:31.573Z,79.04
2023-02-23T03:42:05.141Z,79.16
2023-02-23T03:44:39.027Z,79.50
2023-02-23T03:47:12.637Z,79.57
2023-02-23T03:49:45.091Z,79.32
2023-02-23T03:52:18.776Z,78.92
2023-02-23T03:55:06.343Z,79.01
2023-02-23T03:57:40.527Z,79.01
2023-02-23T04:00:13.932Z,79.71
2023-02-23T04:02:47.275Z,79.71
2023-02-23T04:08:21.940Z,79.46
2023-02-23T04:10:57.160Z,79.54
2023-02-23T04:13:30.896Z,79.54
2023-02-23T04:16:05.711Z,79.49
2023-02-23T04:18:39.722Z,79.87
2023-02-23T04:21:10.164Z,79.41
2023-02-23T04:23:43.385Z,79.68
2023-02-23T04:26:13.721Z,79.87
2023-02-23T04:28:44.354Z,79.32
2023-02-23T04:31:15.029Z,80.59
2023-02-23T04:33:45.441Z,81.02
2023-02-23T04:36:15.878Z,80.59
2023-02-23T04:38:46.901Z,80.74
2023-02-23T04:41:19.538Z,80.89
2023-02-23T04:43:50.779Z,80.70
2023-02-23T04:46:21.155Z,80.95
2023-02-23T04:48:55.575Z,81.19
2023-02-23T04:51:28.905Z,80.88
2023-02-23T04:53:59.354Z,80.90
2023-02-23T04:56:32.881Z,80.51
2023-02-23T04:59:09.093Z,79.82
2023-02-23T05:01:41.577Z,80.12
2023-02-23T05:04:13.048Z,80.12
2023-02-23T05:07:01.072Z,79.78
2023-02-23T05:09:35.059Z,79.97
2023-02-23T05:12:09.249Z,79.58
2023-02-23T05:14:41.222Z,79.71
2023-02-23T05:17:29.733Z,79.06
2023-02-23T05:20:00.075Z,79.17
2023-02-23T05:22:31.175Z,79.17
2023-02-23T05:25:01.627Z,78.99
2023-02-23T05:27:32.704Z,78.92
2023-02-23T05:30:03.396Z,79.22
2023-02-23T05:32:34.103Z,79.66
2023-02-23T05:35:04.725Z,79.66
2023-02-23T05:37:36.967Z,79.14
2023-02-23T05:40:08.336Z,79.90
2023-02-23T05:42:39.435Z,79.90
2023-02-23T05:45:10.149Z,79.07
2023-02-23T05:47:40.574Z,78.82
2023-02-23T05:50:13.113Z,79.29
2023-02-23T05:52:44.201Z,78.19
2023-02-23T05:55:15.261Z,78.19
2023-02-23T05:57:49.192Z,77.90
2023-02-23T06:00:20.271Z,77.90
2023-02-23T06:02:51.700Z,77.52
2023-02-23T06:05:23.030Z,77.21
2023-02-23T06:07:54.418Z,78.38
2023-02-23T06:10:26.430Z,77.17
2023-02-23T06:12:58.399Z,77.17
2023-02-23T06:15:33.245Z,77.06
2023-02-23T06:18:04.895Z,77.45
2023-02-23T06:20:36.088Z,76.15
2023-02-23T06:23:07.979Z,76.73
2023-02-23T06:25:44.896Z,76.90
2023-02-23T06:28:16.129Z,75.79
2023-02-23T06:30:46.875Z,75.79
2023-02-23T06:33:17.410Z,75.26
2023-02-23T06:35:47.885Z,75.26
2023-02-23T06:38:18.837Z,73.37
2023-02-23T06:40:49.604Z,73.37
2023-02-23T06:43:22.174Z,73.67
2023-02-23T06:45:56.122Z,72.58
2023-02-23T06:48:29.707Z,72.58
2023-02-23T06:51:00.979Z,70.97
2023-02-23T06:53:38.199Z,70.97
2023-02-23T06:56:08.762Z,70.97
2023-02-23T06:58:39.171Z,68.95
2023-02-23T07:01:10.316Z,67.08
2023-02-23T07:03:42.504Z,67.08
2023-02-23T07:06:12.817Z,59.04
2023-02-23T07:08:43.840Z,59.04
2023-02-23T07:11:17.437Z,51.55
2023-02-23T07:14:15.359Z,49.82
2023-02-23T07:16:43.671Z,47.20
2023-02-23T07:19:17.177Z,47.20
2023-02-23T07:21:47.789Z,48.42
2023-02-23T07:24:18.144Z,48.53
2023-02-23T07:27:02.779Z,45.25
2023-02-23T07:29:27.053Z,45.73
2023-02-23T07:31:57.625Z,45.73
2023-02-23T07:34:28.298Z,45.67
2023-02-23T07:36:58.643Z,45.67
2023-02-23T07:39:31.734Z,42.83
2023-02-23T07:42:07.066Z,44.15
2023-02-23T07:45:12.458Z,44.15
2023-02-23T07:58:16.392Z,41.35
2023-02-23T08:00:52.783Z,41.82
2023-02-23T08:03:23.603Z,40.42
2023-02-23T08:05:56.852Z,41.05
2023-02-23T08:08:28.657Z,41.37
2023-02-23T08:11:05.348Z,38.82
2023-02-23T08:14:09.394Z,38.82
2023-02-23T08:39:46.858Z,37.00
2023-02-23T08:45:12.893Z,32.81
2023-02-23T08:47:44.211Z,33.57
2023-02-23T08:50:33.777Z,34.15
2023-02-23T08:53:12.596Z,33.91
2023-02-23T08:55:44.092Z,32.95
2023-02-23T08:58:15.548Z,32.82
2023-02-23T09:00:46.801Z,32.98
2023-02-23T09:06:13.001Z,32.98
2023-02-23T09:08:46.663Z,31.96
2023-02-23T09:11:17.870Z,31.96
2023-02-23T09:13:49.235Z,33.01
2023-02-23T09:16:23.626Z,33.36
2023-02-23T09:18:59.598Z,32.89
2023-02-23T09:21:33.008Z,33.04
2023-02-23T09:24:04.486Z,32.50
2023-02-23T09:26:35.845Z,33.30
2023-02-23T09:29:08.970Z,33.05
2023-02-23T09:31:42.512Z,33.86
2023-02-23T09:34:13.009Z,33.10
2023-02-23T09:36:44.165Z,32.36
2023-02-23T09:39:14.680Z,32.36
2023-02-23T09:42:09.688Z,33.46
2023-02-23T09:44:44.164Z,33.15
2023-02-23T09:47:36.535Z,33.52
2023-02-23T09:50:15.851Z,32.77
2023-02-23T09:52:59.207Z,32.77
2023-02-23T09:55:30.576Z,32.81
2023-02-23T09:58:07.096Z,33.01
2023-02-23T10:00:40.531Z,31.94
2023-02-23T10:03:21.086Z,31.94
2023-02-23T10:06:18.220Z,32.69
2023-02-23T10:09:20.661Z,32.18
2023-02-23T10:12:05.429Z,32.00
2023-02-23T10:15:04.234Z,31.42
2023-02-23T10:18:09.674Z,32.18
2023-02-23T10:21:10.831Z,32.94
2023-02-23T10:24:00.529Z,33.85
2023-02-23T10:26:46.365Z,33.51
2023-02-23T10:29:25.083Z,33.40
2023-02-23T10:32:05.108Z,33.40
2023-02-23T10:34:37.536Z,35.23
2023-02-23T10:37:11.324Z,35.23
2023-02-23T10:39:50.467Z,34.73
2023-02-23T10:42:26.500Z,33.66
2023-02-23T10:45:02.086Z,34.03
2023-02-23T10:47:35.822Z,33.60
2023-02-23T10:50:08.316Z,33.60
2023-02-23T10:52:47.284Z,35.14
2023-02-23T10:55:40.062Z,35.11
2023-02-23T10:58:35.039Z,35.77
2023-02-23T11:01:12.591Z,34.98
2023-02-23T11:03:52.328Z,33.22
2023-02-23T11:06:33.762Z,33.22
2023-02-23T11:09:43.804Z,32.17
2023-02-23T11:12:03.132Z,32.16
2023-02-23T11:14:35.226Z,32.70
2023-02-23T11:17:05.660Z,32.51
2023-02-23T11:19:40.545Z,32.97
2023-02-23T11:22:15.552Z,30.91
2023-02-23T11:24:46.621Z,33.56
2023-02-23T11:27:26.047Z,33.01
2023-02-23T11:29:59.646Z,33.01
2023-02-23T11:32:33.083Z,33.16
2023-02-23T11:35:33.441Z,32.96
2023-02-23T11:38:26.122Z,33.51
2023-02-23T11:41:05.858Z,33.42
2023-02-23T11:43:36.853Z,32.32
2023-02-23T11:46:09.904Z,33.30
2023-02-23T11:49:03.245Z,30.42
2023-02-23T11:51:57.500Z,34.61
2023-02-23T11:54:51.388Z,34.00
2023-02-23T11:57:27.052Z,31.40
2023-02-23T12:00:00.719Z,33.26
2023-02-23T12:02:33.227Z,33.27
2023-02-23T12:05:09.594Z,32.97
2023-02-23T12:07:43.286Z,32.43
2023-02-23T12:10:25.380Z,32.43
2023-02-23T12:13:28.769Z,33.61
2023-02-23T12:16:31.223Z,32.50
2023-02-23T12:19:28.896Z,30.78
2023-02-23T12:22:15.563Z,30.78
2023-02-23T12:25:04.007Z,31.68
2023-02-23T12:27:43.953Z,29.30
2023-02-23T12:30:44.060Z,29.94
2023-02-23T12:33:20.298Z,29.45
2023-02-23T12:36:00.702Z,29.45
2023-02-23T12:39:01.817Z,29.37
2023-02-23T12:41:49.401Z,29.97
2023-02-23T12:44:59.475Z,30.28
2023-02-23T12:47:39.494Z,30.33
2023-02-23T12:50:15.917Z,29.67
2023-02-23T12:53:01.006Z,30.24
2023-02-23T12:55:37.363Z,30.88
2023-02-23T12:58:19.269Z,30.61
2023-02-23T13:00:55.472Z,29.36
2023-02-23T13:03:58.890Z,29.36
2023-02-23T13:06:40.659Z,31.31
2023-02-23T13:09:43.767Z,31.33
2023-02-23T13:12:23.041Z,31.33
2023-02-23T13:15:33.057Z,31.10
2023-02-23T13:18:24.296Z,31.13
2023-02-23T13:21:00.285Z,32.63
2023-02-23T13:23:34.180Z,34.13
2023-02-23T13:26:25.273Z,34.20
2023-02-23T13:28:59.219Z,35.93
2023-02-23T13:31:38.204Z,36.03
2023-02-23T13:34:16.290Z,36.03
2023-02-23T13:36:47.894Z,36.60
2023-02-23T13:39:40.616Z,36.48
2023-02-23T13:42:32.274Z,36.73
2023-02-23T13:45:23.370Z,36.96
2023-02-23T13:48:05.572Z,39.54
2023-02-23T13:50:46.331Z,39.54
2023-02-23T13:54:04.253Z,37.87
2023-02-23T13:56:44.240Z,37.87
2023-02-23T13:59:23.526Z,40.53
2023-02-23T14:01:55.832Z,39.61
2023-02-23T14:04:43.903Z,38.73
2023-02-23T14:16:24.905Z,40.44
2023-02-23T14:19:16.617Z,40.44
2023-02-23T14:21:53.143Z,39.73
2023-02-23T14:24:29.509Z,39.73
2023-02-23T14:27:30.557Z,39.16
2023-02-23T14:30:10.256Z,41.05
2023-02-23T14:32:55.968Z,40.43
2023-02-23T14:35:38.608Z,40.43
2023-02-23T14:38:11.970Z,40.36
2023-02-23T14:40:45.241Z,40.53
2023-02-23T14:43:48.910Z,39.94
2023-02-23T14:46:24.072Z,39.83
2023-02-23T14:49:07.956Z,41.03
2023-02-23T14:51:43.161Z,40.86
2023-02-23T14:54:25.812Z,40.41
2023-02-23T14:56:59.205Z,40.41
2023-02-23T14:59:38.557Z,40.74
2023-02-23T15:05:18.477Z,40.09
2023-02-23T15:07:55.621Z,41.26
2023-02-23T15:10:29.475Z,41.59
2023-02-23T15:13:09.177Z,41.59
2023-02-23T15:15:43.017Z,43.67
2023-02-23T15:18:16.400Z,43.67
2023-02-23T15:20:50.568Z,42.83
2023-02-23T15:23:22.008Z,44.77
2023-02-23T15:25:56.639Z,42.89
2023-02-23T15:28:30.419Z,42.89
2023-02-23T15:31:08.051Z,43.51
2023-02-23T15:33:39.239Z,43.51
2023-02-23T15:36:28.403Z,44.28
2023-02-23T15:39:02.151Z,44.74
2023-02-23T15:41:38.430Z,44.74
2023-02-23T15:44:32.206Z,43.84
2023-02-23T15:47:26.780Z,45.71
2023-02-23T15:50:05.520Z,44.58
2023-02-23T15:52:39.722Z,45.73
2023-02-23T15:55:19.837Z,47.62
2023-02-23T15:58:23.403Z,46.67
2023-02-23T16:00:59.212Z,47.26
2023-02-23T16:03:36.344Z,46.73
2023-02-23T16:06:27.406Z,46.73
2023-02-23T16:09:21.775Z,46.53
2023-02-23T16:11:58.193Z,47.55
2023-02-23T16:14:37.810Z,47.55
2023-02-23T16:17:11.993Z,46.44
2023-02-23T16:19:40.318Z,45.77
2023-02-23T16:22:20.418Z,46.17
2023-02-23T16:24:53.913Z,45.69
2023-02-23T16:27:26.987Z,44.91
2023-02-23T16:30:18.230Z,44.89
2023-02-23T16:32:50.237Z,45.44
2023-02-23T16:35:21.804Z,45.54
2023-02-23T16:37:59.063Z,46.07
2023-02-23T16:40:29.999Z,46.07
2023-02-23T16:43:00.652Z,49.06
2023-02-23T16:45:34.661Z,48.51
2023-02-23T16:48:30.138Z,46.54
2023-02-23T16:51:01.703Z,47.59
2023-02-23T16:53:32.388Z,48.88
2023-02-23T16:56:06.219Z,49.73
2023-02-23T16:58:37.338Z,49.73
2023-02-23T17:01:07.892Z,50.98
2023-02-23T17:03:47.351Z,51.93
2023-02-23T17:06:11.692Z,50.93
2023-02-23T17:08:52.176Z,52.81
2023-02-23T17:11:16.037Z,50.51
2023-02-23T17:13:49.397Z,50.67
2023-02-23T17:16:20.191Z,52.69
2023-02-23T17:18:54.311Z,52.38
2023-02-23T17:21:25.686Z,52.93
2023-02-23T17:23:56.156Z,53.67
2023-02-23T17:27:08.039Z,53.67
2023-02-23T17:29:06.487Z,53.49
2023-02-23T17:31:46.695Z,53.95
2023-02-23T17:34:11.915Z,53.95
2023-02-23T17:36:45.151Z,54.66
2023-02-23T17:39:19.438Z,53.47
2023-02-23T17:41:52.351Z,53.47
2023-02-23T17:44:24.426Z,51.29
2023-02-23T17:46:54.867Z,52.34
2023-02-23T17:49:26.736Z,52.27
2023-02-23T17:52:01.340Z,55.83
2023-02-23T17:54:34.516Z,55.83
2023-02-23T17:57:05.904Z,56.02
2023-02-23T17:59:36.349Z,56.14
2023-02-23T18:02:06.936Z,57.40
2023-02-23T18:04:37.471Z,55.72
2023-02-23T18:07:11.309Z,56.45
2023-02-23T18:09:41.788Z,57.96
2023-02-23T18:12:30.875Z,58.15
2023-02-23T18:15:24.490Z,58.67
2023-02-23T18:18:01.756Z,58.66
2023-02-23T18:20:42.987Z,56.17
2023-02-23T18:23:19.822Z,57.19
2023-02-23T18:25:59.841Z,57.64
2023-02-23T18:28:38.708Z,57.64
2023-02-23T18:31:37.529Z,55.38
2023-02-23T18:34:18.371Z,54.49
2023-02-23T18:36:50.293Z,56.08
2023-02-23T18:39:24.891Z,59.23
2023-02-23T18:42:29.695Z,61.16
2023-02-23T18:48:00.243Z,58.43
2023-02-23T18:50:38.035Z,57.21
2023-02-23T18:56:22.664Z,61.63
2023-02-23T18:59:04.664Z,61.63
2023-02-23T19:01:43.776Z,59.83
2023-02-23T19:04:20.222Z,59.26
2023-02-23T19:06:49.403Z,59.26
2023-02-23T19:09:26.092Z,60.02
2023-02-23T19:12:07.032Z,59.11
2023-02-23T19:14:49.352Z,57.90
2023-02-23T19:17:35.694Z,56.80
2023-02-23T19:23:04.574Z,53.29
2023-02-23T19:25:37.114Z,51.87
2023-02-23T19:28:13.161Z,52.96
2023-02-23T19:30:41.944Z,56.49
2023-02-23T19:33:29.590Z,56.13
2023-02-23T19:36:36.262Z,56.81
2023-02-23T19:43:15.692Z,58.28
2023-02-23T19:46:07.190Z,58.64
2023-02-23T19:48:49.836Z,58.64
2023-02-23T19:51:24.257Z,61.39
2023-02-23T19:53:56.460Z,60.91
2023-02-23T19:59:15.888Z,55.36
2023-02-23T20:05:27.040Z,56.32
2023-02-23T20:08:20.900Z,55.12
2023-02-23T20:10:55.739Z,57.14
2023-02-23T20:13:27.783Z,54.33
2023-02-23T20:16:07.002Z,54.33
2023-02-23T20:18:40.455Z,54.58
2023-02-23T20:21:22.038Z,54.58
2023-02-23T20:23:53.992Z,55.78
2023-02-23T20:26:34.094Z,54.47
2023-02-23T20:29:08.124Z,55.88
2023-02-23T20:31:42.775Z,55.53
2023-02-23T20:34:17.847Z,55.53
2023-02-23T20:36:50.328Z,55.23
2023-02-23T20:39:20.799Z,52.52
2023-02-23T20:41:59.161Z,51.41
2023-02-23T20:44:33.334Z,51.10
2023-02-23T20:47:04.562Z,52.67
2023-02-23T20:49:39.365Z,52.67
2023-02-23T20:52:13.614Z,50.91
2023-02-23T20:54:45.414Z,50.91
2023-02-23T20:57:19.244Z,51.97
2023-02-23T20:59:58.729Z,54.09
2023-02-23T21:02:30.708Z,54.02
2023-02-23T21:05:10.514Z,54.27
2023-02-23T21:07:42.145Z,53.26
2023-02-23T21:10:15.364Z,53.26
2023-02-23T21:12:56.736Z,52.91
2023-02-23T21:15:33.958Z,52.91
2023-02-23T21:18:08.132Z,52.55
2023-02-23T21:23:41.404Z,52.28
2023-02-23T21:26:14.673Z,52.32
2023-02-23T21:28:56.631Z,52.19
2023-02-23T21:31:27.105Z,52.90
2023-02-23T21:34:00.812Z,53.25
2023-02-23T21:36:47.368Z,53.59
2023-02-23T21:39:19.074Z,53.92
2023-02-23T21:41:50.928Z,53.91
2023-02-23T21:44:25.582Z,54.42
2023-02-23T21:46:56.012Z,54.25
2023-02-23T21:49:30.429Z,54.25
2023-02-23T21:54:52.944Z,54.97
2023-02-23T21:57:29.107Z,55.27
2023-02-23T22:00:07.818Z,55.27
2023-02-23T22:02:38.729Z,55.59
2023-02-23T22:05:13.491Z,55.59
2023-02-23T22:08:04.680Z,56.15
2023-02-23T22:10:39.019Z,56.15
2023-02-23T22:13:09.554Z,55.84
2023-02-23T22:15:42.925Z,55.93
2023-02-23T22:18:13.474Z,56.28
2023-02-23T22:20:51.391Z,56.40
2023-02-23T22:23:27.528Z,56.26
2023-02-23T22:25:55.462Z,56.33
2023-02-23T22:28:30.173Z,56.22
2023-02-23T22:31:20.481Z,56.40
2023-02-23T22:33:56.097Z,57.02
2023-02-23T22:36:28.441Z,56.55
2023-02-23T22:39:03.720Z,56.96
2023-02-23T22:41:37.093Z,57.01
2023-02-23T22:46:57.082Z,57.09
2023-02-23T22:49:31.539Z,57.03
2023-02-23T22:52:02.767Z,56.99
2023-02-23T22:54:37.510Z,56.99
2023-02-23T22:57:08.113Z,58.20
2023-02-23T22:59:39.733Z,58.20
2023-02-23T23:02:10.857Z,58.81
2023-02-23T23:04:42.522Z,59.09
2023-02-23T23:07:13.407Z,58.46
2023-02-23T23:09:45.995Z,58.29
2023-02-23T23:12:19.180Z,58.36
2023-02-23T23:14:52.454Z,58.32
2023-02-23T23:17:22.421Z,58.66
2023-02-23T23:19:53.524Z,58.66
2023-02-23T23:22:26.863Z,58.34
2023-02-23T23:24:59.347Z,58.34
2023-02-23T23:27:29.797Z,58.89
2023-02-23T23:30:06.961Z,58.79
2023-02-23T23:32:38.677Z,58.79
2023-02-23T23:35:09.482Z,59.27
2023-02-23T23:37:40.724Z,58.75
2023-02-23T23:40:13.957Z,58.75
2023-02-23T23:42:51.283Z,59.17
2023-02-23T23:45:21.973Z,59.13
2023-02-23T23:47:52.411Z,59.45
2023-02-23T23:50:23.354Z,59.42
2023-02-23T23:52:54.888Z,59.42
2023-02-23T23:55:25.210Z,59.56
2023-02-23T23:57:55.609Z,59.81
